To NAV CANADA Home Page Login to a new session Search on AWWS site Feedback and Comments Disclaimer Vers la page française équivalente Tips FAQ What's new on the site To the Forecasts and Observations / NOTAM section To "File a Flight Plan" website Publications and other links Update of the User's profile FIC Telephone Numbers My Weather Data Folder Route Weather Data Regional Weather Data Local Weather Data To the Forecasts and Observations / NOTAM section
Request Generated 04/18/2014 at 18:10:49 UTC . Weather information available at that time is displayed.

METAR/TAF

QUEBEC/JEAN LESAGE INTL/QC    

METAR CYQB 181800Z VRB02KT 30SM FEW085 BKN140 08/M05 A3033 RMK AC2AS5
SLP275=
METAR CYQB 181700Z 34004KT 30SM FEW100 OVC140 07/M07 A3038 RMK AC1AS7
SLP292=
METAR CYQB 181600Z 34004KT 30SM OVC140 06/M06 A3042 RMK AS8 SLP305=

TAF CYQB 181738Z 1818/1918 VRB03KT P6SM FEW100 OVC140
FM182200 VRB03KT P6SM OVC080
FM190300 VRB03KT P6SM OVC060 TEMPO 1903/1909 6SM -SHRASN OVC040
FM190900 25006KT 6SM BR BKN015 BKN050
FM191200 25010KT P6SM BKN020 BKN060
FM191500 28015KT P6SM BKN030
RMK NXT FCST BY 190000Z=
Your time UTC time
Weather data provided by Environment Canada and NAV CANADA